sensor_id;sensor_type;location;lat;lon;timestamp;P1;durP1;ratioP1;P2;durP2;ratioP2
80411;SDS011;69749;42.684;23.360;2023-08-01T00:01:52;3.50;;;2.10;;
80411;SDS011;69749;42.684;23.360;2023-08-01T00:04:18;3.28;;;2.20;;
80411;SDS011;69749;42.684;23.360;2023-08-01T00:06:43;3.33;;;1.98;;
80411;SDS011;69749;42.684;23.360;2023-08-01T00:09:08;2.35;;;1.98;;
80411;SDS011;69749;42.684;23.360;2023-08-01T00:11:34;2.88;;;2.05;;
80411;SDS011;69749;42.684;23.360;2023-08-01T00:13:59;2.00;;;1.80;;
80411;SDS011;69749;42.684;23.360;2023-08-01T00:16:25;4.05;;;2.53;;
80411;SDS011;69749;42.684;23.360;2023-08-01T00:18:50;2.50;;;1.90;;
80411;SDS011;69749;42.684;23.360;2023-08-01T00:21:16;2.97;;;2.20;;
80411;SDS011;69749;42.684;23.360;2023-08-01T00:23:41;2.63;;;2.00;;
80411;SDS011;69749;42.684;23.360;2023-08-01T00:26:06;3.00;;;2.00;;
80411;SDS011;69749;42.684;23.360;2023-08-01T00:28:32;2.65;;;2.15;;
80411;SDS011;69749;42.684;23.360;2023-08-01T00:31:07;2.25;;;1.80;;
80411;SDS011;69749;42.684;23.360;2023-08-01T00:33:36;2.47;;;2.10;;
80411;SDS011;69749;42.684;23.360;2023-08-01T00:36:01;3.10;;;2.17;;
80411;SDS011;69749;42.684;23.360;2023-08-01T00:38:27;2.90;;;2.17;;
80411;SDS011;69749;42.684;23.360;2023-08-01T00:40:53;2.30;;;2.10;;
80411;SDS011;69749;42.684;23.360;2023-08-01T00:43:18;2.92;;;2.30;;
80411;SDS011;69749;42.684;23.360;2023-08-01T00:45:44;3.78;;;2.78;;
80411;SDS011;69749;42.684;23.360;2023-08-01T00:48:10;5.82;;;2.50;;
80411;SDS011;69749;42.684;23.360;2023-08-01T00:50:36;2.28;;;2.00;;
80411;SDS011;69749;42.684;23.360;2023-08-01T00:53:02;4.10;;;2.38;;
80411;SDS011;69749;42.684;23.360;2023-08-01T00:55:28;2.85;;;2.55;;
80411;SDS011;69749;42.684;23.360;2023-08-01T00:57:55;3.78;;;2.35;;
80411;SDS011;69749;42.684;23.360;2023-08-01T01:00:20;3.13;;;2.50;;
80411;SDS011;69749;42.684;23.360;2023-08-01T01:02:46;2.53;;;2.33;;
80411;SDS011;69749;42.684;23.360;2023-08-01T01:05:11;3.00;;;2.30;;
80411;SDS011;69749;42.684;23.360;2023-08-01T01:07:38;3.55;;;2.90;;
80411;SDS011;69749;42.684;23.360;2023-08-01T01:10:04;4.47;;;2.65;;
80411;SDS011;69749;42.684;23.360;2023-08-01T01:12:30;5.40;;;3.03;;
80411;SDS011;69749;42.684;23.360;2023-08-01T01:14:55;3.70;;;3.28;;
80411;SDS011;69749;42.684;23.360;2023-08-01T01:17:21;3.53;;;3.17;;
80411;SDS011;69749;42.684;23.360;2023-08-01T01:19:46;3.08;;;2.78;;
80411;SDS011;69749;42.684;23.360;2023-08-01T01:22:12;3.80;;;3.50;;
80411;SDS011;69749;42.684;23.360;2023-08-01T01:24:37;4.80;;;3.65;;
80411;SDS011;69749;42.684;23.360;2023-08-01T01:27:05;5.00;;;3.92;;
80411;SDS011;69749;42.684;23.360;2023-08-01T01:29:32;7.43;;;4.47;;
80411;SDS011;69749;42.684;23.360;2023-08-01T01:32:02;5.78;;;4.65;;
80411;SDS011;69749;42.684;23.360;2023-08-01T01:34:28;6.30;;;4.50;;
80411;SDS011;69749;42.684;23.360;2023-08-01T01:36:54;4.80;;;4.30;;
80411;SDS011;69749;42.684;23.360;2023-08-01T01:39:19;5.65;;;4.40;;
80411;SDS011;69749;42.684;23.360;2023-08-01T01:41:45;4.82;;;3.88;;
80411;SDS011;69749;42.684;23.360;2023-08-01T01:44:11;6.63;;;4.30;;
80411;SDS011;69749;42.684;23.360;2023-08-01T01:46:36;5.63;;;4.05;;
80411;SDS011;69749;42.684;23.360;2023-08-01T01:49:01;6.32;;;4.93;;
80411;SDS011;69749;42.684;23.360;2023-08-01T01:51:27;7.47;;;4.65;;
80411;SDS011;69749;42.684;23.360;2023-08-01T01:53:54;9.38;;;5.18;;
80411;SDS011;69749;42.684;23.360;2023-08-01T01:56:19;6.03;;;4.70;;
80411;SDS011;69749;42.684;23.360;2023-08-01T01:58:45;6.30;;;4.93;;
80411;SDS011;69749;42.684;23.360;2023-08-01T02:01:10;6.85;;;4.70;;
80411;SDS011;69749;42.684;23.360;2023-08-01T02:03:35;4.88;;;4.43;;
80411;SDS011;69749;42.684;23.360;2023-08-01T02:06:01;6.60;;;4.20;;
80411;SDS011;69749;42.684;23.360;2023-08-01T02:08:28;6.05;;;4.32;;
80411;SDS011;69749;42.684;23.360;2023-08-01T02:10:54;5.30;;;4.53;;
80411;SDS011;69749;42.684;23.360;2023-08-01T02:13:22;6.60;;;4.60;;
80411;SDS011;69749;42.684;23.360;2023-08-01T02:15:48;6.20;;;5.60;;
80411;SDS011;69749;42.684;23.360;2023-08-01T02:18:14;5.65;;;5.05;;
80411;SDS011;69749;42.684;23.360;2023-08-01T02:20:39;6.72;;;4.88;;
80411;SDS011;69749;42.684;23.360;2023-08-01T02:23:05;5.63;;;5.05;;
80411;SDS011;69749;42.684;23.360;2023-08-01T02:25:30;9.57;;;5.55;;
80411;SDS011;69749;42.684;23.360;2023-08-01T02:27:55;8.15;;;5.57;;
80411;SDS011;69749;42.684;23.360;2023-08-01T02:30:21;6.15;;;4.85;;
80411;SDS011;69749;42.684;23.360;2023-08-01T02:32:46;6.32;;;5.03;;
80411;SDS011;69749;42.684;23.360;2023-08-01T02:35:11;4.85;;;4.35;;
80411;SDS011;69749;42.684;23.360;2023-08-01T02:37:37;6.30;;;4.60;;
80411;SDS011;69749;42.684;23.360;2023-08-01T02:40:03;6.25;;;4.93;;
80411;SDS011;69749;42.684;23.360;2023-08-01T02:42:32;5.90;;;3.97;;
80411;SDS011;69749;42.684;23.360;2023-08-01T02:44:58;5.93;;;4.00;;
80411;SDS011;69749;42.684;23.360;2023-08-01T02:47:23;4.57;;;4.07;;
80411;SDS011;69749;42.684;23.360;2023-08-01T02:49:48;4.68;;;4.25;;
80411;SDS011;69749;42.684;23.360;2023-08-01T02:52:14;5.35;;;4.38;;
80411;SDS011;69749;42.684;23.360;2023-08-01T02:54:39;7.07;;;4.95;;
80411;SDS011;69749;42.684;23.360;2023-08-01T02:57:05;7.68;;;5.45;;
80411;SDS011;69749;42.684;23.360;2023-08-01T02:59:31;8.25;;;5.32;;
80411;SDS011;69749;42.684;23.360;2023-08-01T03:04:23;6.78;;;6.05;;
80411;SDS011;69749;42.684;23.360;2023-08-01T03:06:48;35.10;;;28.10;;
80411;SDS011;69749;42.684;23.360;2023-08-01T03:09:14;41.80;;;33.45;;
80411;SDS011;69749;42.684;23.360;2023-08-01T03:11:40;28.08;;;23.25;;
80411;SDS011;69749;42.684;23.360;2023-08-01T03:14:06;17.63;;;13.10;;
80411;SDS011;69749;42.684;23.360;2023-08-01T03:16:31;17.95;;;14.23;;
80411;SDS011;69749;42.684;23.360;2023-08-01T03:18:57;17.13;;;14.85;;
80411;SDS011;69749;42.684;23.360;2023-08-01T03:23:52;10.25;;;8.02;;
80411;SDS011;69749;42.684;23.360;2023-08-01T03:26:18;9.23;;;7.97;;
80411;SDS011;69749;42.684;23.360;2023-08-01T03:28:43;7.88;;;6.53;;
80411;SDS011;69749;42.684;23.360;2023-08-01T03:31:08;7.15;;;5.43;;
80411;SDS011;69749;42.684;23.360;2023-08-01T03:33:34;5.97;;;4.30;;
80411;SDS011;69749;42.684;23.360;2023-08-01T03:36:00;7.97;;;4.60;;
80411;SDS011;69749;42.684;23.360;2023-08-01T03:38:25;6.55;;;4.30;;
80411;SDS011;69749;42.684;23.360;2023-08-01T03:40:50;6.90;;;4.55;;
80411;SDS011;69749;42.684;23.360;2023-08-01T03:43:16;5.93;;;4.70;;
80411;SDS011;69749;42.684;23.360;2023-08-01T03:45:41;6.97;;;4.50;;
80411;SDS011;69749;42.684;23.360;2023-08-01T03:48:07;4.93;;;4.43;;
80411;SDS011;69749;42.684;23.360;2023-08-01T03:50:32;5.75;;;5.10;;
80411;SDS011;69749;42.684;23.360;2023-08-01T03:52:58;6.50;;;5.15;;
80411;SDS011;69749;42.684;23.360;2023-08-01T03:55:23;5.47;;;4.90;;
80411;SDS011;69749;42.684;23.360;2023-08-01T03:57:48;6.93;;;5.43;;
80411;SDS011;69749;42.684;23.360;2023-08-01T04:00:14;6.60;;;5.05;;
80411;SDS011;69749;42.684;23.360;2023-08-01T04:02:40;5.68;;;5.07;;
80411;SDS011;69749;42.684;23.360;2023-08-01T04:07:32;6.80;;;4.95;;
80411;SDS011;69749;42.684;23.360;2023-08-01T04:09:57;5.70;;;4.22;;
80411;SDS011;69749;42.684;23.360;2023-08-01T04:12:23;4.90;;;4.28;;
80411;SDS011;69749;42.684;23.360;2023-08-01T04:14:48;5.72;;;4.78;;
80411;SDS011;69749;42.684;23.360;2023-08-01T04:17:13;5.35;;;4.03;;
80411;SDS011;69749;42.684;23.360;2023-08-01T04:19:39;6.78;;;4.90;;
80411;SDS011;69749;42.684;23.360;2023-08-01T04:22:04;6.25;;;4.80;;
80411;SDS011;69749;42.684;23.360;2023-08-01T04:24:30;6.00;;;5.03;;
80411;SDS011;69749;42.684;23.360;2023-08-01T04:26:56;5.30;;;4.60;;
80411;SDS011;69749;42.684;23.360;2023-08-01T04:29:21;5.20;;;4.00;;
80411;SDS011;69749;42.684;23.360;2023-08-01T04:31:46;6.47;;;4.78;;
80411;SDS011;69749;42.684;23.360;2023-08-01T04:34:12;5.05;;;3.78;;
80411;SDS011;69749;42.684;23.360;2023-08-01T04:36:37;5.28;;;3.90;;
80411;SDS011;69749;42.684;23.360;2023-08-01T04:39:03;5.07;;;4.47;;
80411;SDS011;69749;42.684;23.360;2023-08-01T04:41:28;5.60;;;4.50;;
80411;SDS011;69749;42.684;23.360;2023-08-01T04:43:53;5.35;;;4.22;;
80411;SDS011;69749;42.684;23.360;2023-08-01T04:46:19;6.40;;;4.15;;
80411;SDS011;69749;42.684;23.360;2023-08-01T04:48:44;6.43;;;4.57;;
80411;SDS011;69749;42.684;23.360;2023-08-01T04:51:10;6.18;;;4.25;;
80411;SDS011;69749;42.684;23.360;2023-08-01T04:53:35;6.28;;;4.32;;
80411;SDS011;69749;42.684;23.360;2023-08-01T04:56:01;6.95;;;4.13;;
80411;SDS011;69749;42.684;23.360;2023-08-01T04:58:26;6.32;;;4.25;;
80411;SDS011;69749;42.684;23.360;2023-08-01T05:00:51;4.88;;;3.88;;
80411;SDS011;69749;42.684;23.360;2023-08-01T05:03:17;5.50;;;3.60;;
80411;SDS011;69749;42.684;23.360;2023-08-01T05:05:43;6.93;;;4.05;;
80411;SDS011;69749;42.684;23.360;2023-08-01T05:08:08;6.93;;;3.50;;
80411;SDS011;69749;42.684;23.360;2023-08-01T05:10:33;4.57;;;3.90;;
80411;SDS011;69749;42.684;23.360;2023-08-01T05:12:59;7.47;;;4.20;;
80411;SDS011;69749;42.684;23.360;2023-08-01T05:15:24;5.50;;;3.80;;
80411;SDS011;69749;42.684;23.360;2023-08-01T05:17:50;6.13;;;4.57;;
80411;SDS011;69749;42.684;23.360;2023-08-01T05:20:15;7.53;;;4.93;;
80411;SDS011;69749;42.684;23.360;2023-08-01T05:22:41;6.15;;;3.72;;
80411;SDS011;69749;42.684;23.360;2023-08-01T05:25:06;5.25;;;3.28;;
80411;SDS011;69749;42.684;23.360;2023-08-01T05:27:32;5.53;;;3.55;;
80411;SDS011;69749;42.684;23.360;2023-08-01T05:29:59;8.40;;;4.03;;
80411;SDS011;69749;42.684;23.360;2023-08-01T05:32:24;4.95;;;3.42;;
80411;SDS011;69749;42.684;23.360;2023-08-01T05:34:49;6.43;;;3.50;;
80411;SDS011;69749;42.684;23.360;2023-08-01T05:37:15;5.82;;;4.35;;
80411;SDS011;69749;42.684;23.360;2023-08-01T05:39:40;6.40;;;4.13;;
80411;SDS011;69749;42.684;23.360;2023-08-01T05:42:06;5.30;;;3.78;;
80411;SDS011;69749;42.684;23.360;2023-08-01T05:44:33;5.20;;;4.35;;
80411;SDS011;69749;42.684;23.360;2023-08-01T05:46:59;6.68;;;3.58;;
80411;SDS011;69749;42.684;23.360;2023-08-01T05:49:24;7.03;;;3.58;;
80411;SDS011;69749;42.684;23.360;2023-08-01T05:51:50;5.30;;;3.80;;
80411;SDS011;69749;42.684;23.360;2023-08-01T05:54:15;6.07;;;3.90;;
80411;SDS011;69749;42.684;23.360;2023-08-01T05:56:41;6.00;;;3.92;;
80411;SDS011;69749;42.684;23.360;2023-08-01T05:59:06;6.47;;;4.45;;
80411;SDS011;69749;42.684;23.360;2023-08-01T06:01:32;4.75;;;3.58;;
80411;SDS011;69749;42.684;23.360;2023-08-01T06:03:57;7.57;;;3.53;;
80411;SDS011;69749;42.684;23.360;2023-08-01T06:06:23;6.28;;;4.30;;
80411;SDS011;69749;42.684;23.360;2023-08-01T06:08:48;6.10;;;4.20;;
80411;SDS011;69749;42.684;23.360;2023-08-01T06:11:14;5.32;;;4.57;;
80411;SDS011;69749;42.684;23.360;2023-08-01T06:13:39;4.60;;;3.80;;
80411;SDS011;69749;42.684;23.360;2023-08-01T06:16:05;6.07;;;3.80;;
80411;SDS011;69749;42.684;23.360;2023-08-01T06:18:30;5.32;;;3.50;;
80411;SDS011;69749;42.684;23.360;2023-08-01T06:20:55;3.97;;;3.35;;
80411;SDS011;69749;42.684;23.360;2023-08-01T06:23:21;6.38;;;4.05;;
80411;SDS011;69749;42.684;23.360;2023-08-01T06:25:46;7.80;;;4.22;;
80411;SDS011;69749;42.684;23.360;2023-08-01T06:28:12;7.72;;;3.78;;
80411;SDS011;69749;42.684;23.360;2023-08-01T06:30:37;5.13;;;3.70;;
80411;SDS011;69749;42.684;23.360;2023-08-01T06:33:03;6.30;;;3.40;;
80411;SDS011;69749;42.684;23.360;2023-08-01T06:35:28;6.38;;;4.68;;
80411;SDS011;69749;42.684;23.360;2023-08-01T06:37:54;7.53;;;3.90;;
80411;SDS011;69749;42.684;23.360;2023-08-01T06:40:19;7.13;;;3.60;;
80411;SDS011;69749;42.684;23.360;2023-08-01T06:42:45;7.05;;;3.20;;
80411;SDS011;69749;42.684;23.360;2023-08-01T06:45:10;3.83;;;3.20;;
80411;SDS011;69749;42.684;23.360;2023-08-01T06:50:01;6.03;;;3.20;;
80411;SDS011;69749;42.684;23.360;2023-08-01T06:54:51;5.07;;;3.17;;
80411;SDS011;69749;42.684;23.360;2023-08-01T06:59:42;4.03;;;3.63;;
80411;SDS011;69749;42.684;23.360;2023-08-01T07:02:08;5.43;;;3.45;;
80411;SDS011;69749;42.684;23.360;2023-08-01T07:06:59;3.97;;;2.80;;
80411;SDS011;69749;42.684;23.360;2023-08-01T07:09:24;6.57;;;3.45;;
80411;SDS011;69749;42.684;23.360;2023-08-01T07:11:50;5.82;;;3.08;;
80411;SDS011;69749;42.684;23.360;2023-08-01T07:14:15;3.42;;;2.90;;
80411;SDS011;69749;42.684;23.360;2023-08-01T07:16:41;6.18;;;3.33;;
80411;SDS011;69749;42.684;23.360;2023-08-01T07:19:06;4.05;;;3.28;;
80411;SDS011;69749;42.684;23.360;2023-08-01T07:21:31;4.65;;;3.03;;
80411;SDS011;69749;42.684;23.360;2023-08-01T07:23:57;6.70;;;3.60;;
80411;SDS011;69749;42.684;23.360;2023-08-01T07:26:23;10.35;;;4.15;;
80411;SDS011;69749;42.684;23.360;2023-08-01T07:28:48;6.43;;;4.20;;
80411;SDS011;69749;42.684;23.360;2023-08-01T07:33:39;6.03;;;3.17;;
80411;SDS011;69749;42.684;23.360;2023-08-01T07:38:30;6.18;;;2.92;;
80411;SDS011;69749;42.684;23.360;2023-08-01T07:41:02;5.85;;;3.17;;
80411;SDS011;69749;42.684;23.360;2023-08-01T07:43:29;7.03;;;3.30;;
80411;SDS011;69749;42.684;23.360;2023-08-01T07:45:58;5.28;;;3.03;;
80411;SDS011;69749;42.684;23.360;2023-08-01T07:48:24;4.55;;;2.97;;
80411;SDS011;69749;42.684;23.360;2023-08-01T07:50:50;6.43;;;2.92;;
80411;SDS011;69749;42.684;23.360;2023-08-01T07:53:15;6.45;;;3.38;;
80411;SDS011;69749;42.684;23.360;2023-08-01T07:55:40;4.88;;;3.10;;
80411;SDS011;69749;42.684;23.360;2023-08-01T07:58:06;4.63;;;3.45;;
80411;SDS011;69749;42.684;23.360;2023-08-01T08:00:31;7.07;;;3.42;;
80411;SDS011;69749;42.684;23.360;2023-08-01T08:03:00;8.60;;;3.03;;
80411;SDS011;69749;42.684;23.360;2023-08-01T08:05:25;4.85;;;3.13;;
80411;SDS011;69749;42.684;23.360;2023-08-01T08:07:50;6.07;;;3.72;;
80411;SDS011;69749;42.684;23.360;2023-08-01T08:10:16;8.77;;;3.53;;
80411;SDS011;69749;42.684;23.360;2023-08-01T08:12:41;4.10;;;3.45;;
80411;SDS011;69749;42.684;23.360;2023-08-01T08:15:07;6.95;;;3.50;;
80411;SDS011;69749;42.684;23.360;2023-08-01T08:17:32;6.68;;;3.28;;
80411;SDS011;69749;42.684;23.360;2023-08-01T08:19:58;5.25;;;3.20;;
80411;SDS011;69749;42.684;23.360;2023-08-01T08:22:23;7.38;;;3.55;;
80411;SDS011;69749;42.684;23.360;2023-08-01T08:24:49;5.40;;;3.17;;
80411;SDS011;69749;42.684;23.360;2023-08-01T08:27:14;4.22;;;3.08;;
80411;SDS011;69749;42.684;23.360;2023-08-01T08:29:40;7.93;;;3.67;;
80411;SDS011;69749;42.684;23.360;2023-08-01T08:32:06;6.30;;;2.97;;
80411;SDS011;69749;42.684;23.360;2023-08-01T08:34:32;3.72;;;3.13;;
80411;SDS011;69749;42.684;23.360;2023-08-01T08:36:57;3.85;;;3.03;;
80411;SDS011;69749;42.684;23.360;2023-08-01T08:39:22;5.70;;;3.40;;
80411;SDS011;69749;42.684;23.360;2023-08-01T08:41:49;3.70;;;3.03;;
80411;SDS011;69749;42.684;23.360;2023-08-01T08:44:17;6.50;;;3.72;;
80411;SDS011;69749;42.684;23.360;2023-08-01T08:46:50;3.38;;;2.95;;
80411;SDS011;69749;42.684;23.360;2023-08-01T08:49:18;4.90;;;3.00;;
80411;SDS011;69749;42.684;23.360;2023-08-01T08:51:45;3.60;;;3.15;;
80411;SDS011;69749;42.684;23.360;2023-08-01T08:54:10;4.55;;;3.22;;
80411;SDS011;69749;42.684;23.360;2023-08-01T08:56:36;3.58;;;2.95;;
80411;SDS011;69749;42.684;23.360;2023-08-01T08:59:03;5.47;;;3.10;;
80411;SDS011;69749;42.684;23.360;2023-08-01T09:01:29;5.03;;;3.40;;
80411;SDS011;69749;42.684;23.360;2023-08-01T09:03:57;4.60;;;3.42;;
80411;SDS011;69749;42.684;23.360;2023-08-01T09:06:32;3.45;;;3.10;;
80411;SDS011;69749;42.684;23.360;2023-08-01T09:09:14;3.30;;;2.70;;
80411;SDS011;69749;42.684;23.360;2023-08-01T09:11:46;6.75;;;3.53;;
80411;SDS011;69749;42.684;23.360;2023-08-01T09:14:13;4.07;;;3.30;;
80411;SDS011;69749;42.684;23.360;2023-08-01T09:16:39;4.30;;;3.15;;
80411;SDS011;69749;42.684;23.360;2023-08-01T09:19:06;5.20;;;3.25;;
80411;SDS011;69749;42.684;23.360;2023-08-01T09:21:32;4.70;;;3.67;;
80411;SDS011;69749;42.684;23.360;2023-08-01T09:24:07;5.25;;;3.25;;
80411;SDS011;69749;42.684;23.360;2023-08-01T09:26:36;4.25;;;3.33;;
80411;SDS011;69749;42.684;23.360;2023-08-01T09:29:02;4.13;;;3.28;;
80411;SDS011;69749;42.684;23.360;2023-08-01T09:31:34;6.85;;;3.50;;
80411;SDS011;69749;42.684;23.360;2023-08-01T09:34:02;3.90;;;2.88;;
80411;SDS011;69749;42.684;23.360;2023-08-01T09:36:32;4.43;;;3.03;;
80411;SDS011;69749;42.684;23.360;2023-08-01T09:39:01;5.18;;;3.42;;
80411;SDS011;69749;42.684;23.360;2023-08-01T09:41:28;5.65;;;3.10;;
80411;SDS011;69749;42.684;23.360;2023-08-01T09:43:54;4.82;;;3.50;;
80411;SDS011;69749;42.684;23.360;2023-08-01T09:46:20;6.90;;;3.30;;
80411;SDS011;69749;42.684;23.360;2023-08-01T09:48:45;6.38;;;3.60;;
80411;SDS011;69749;42.684;23.360;2023-08-01T09:51:14;3.60;;;3.10;;
80411;SDS011;69749;42.684;23.360;2023-08-01T09:53:49;4.45;;;3.40;;
80411;SDS011;69749;42.684;23.360;2023-08-01T09:56:15;4.88;;;3.42;;
80411;SDS011;69749;42.684;23.360;2023-08-01T09:59:03;4.25;;;3.70;;
80411;SDS011;69749;42.684;23.360;2023-08-01T10:01:29;6.38;;;3.38;;
80411;SDS011;69749;42.684;23.360;2023-08-01T10:04:04;6.45;;;3.55;;
80411;SDS011;69749;42.684;23.360;2023-08-01T10:06:37;4.95;;;3.53;;
80411;SDS011;69749;42.684;23.360;2023-08-01T10:09:04;5.70;;;3.88;;
80411;SDS011;69749;42.684;23.360;2023-08-01T10:11:33;5.80;;;3.67;;
80411;SDS011;69749;42.684;23.360;2023-08-01T10:13:59;7.75;;;3.92;;
80411;SDS011;69749;42.684;23.360;2023-08-01T10:16:27;3.75;;;3.17;;
80411;SDS011;69749;42.684;23.360;2023-08-01T10:18:53;5.55;;;3.70;;
80411;SDS011;69749;42.684;23.360;2023-08-01T10:21:19;5.25;;;3.85;;
80411;SDS011;69749;42.684;23.360;2023-08-01T10:23:46;8.13;;;3.85;;
80411;SDS011;69749;42.684;23.360;2023-08-01T10:26:13;6.30;;;3.67;;
80411;SDS011;69749;42.684;23.360;2023-08-01T10:28:40;6.35;;;4.13;;
80411;SDS011;69749;42.684;23.360;2023-08-01T10:31:15;4.60;;;3.65;;
80411;SDS011;69749;42.684;23.360;2023-08-01T10:33:42;5.10;;;4.03;;
80411;SDS011;69749;42.684;23.360;2023-08-01T10:36:17;6.05;;;3.92;;
80411;SDS011;69749;42.684;23.360;2023-08-01T10:38:44;7.32;;;4.30;;
80411;SDS011;69749;42.684;23.360;2023-08-01T10:41:33;5.68;;;4.32;;
80411;SDS011;69749;42.684;23.360;2023-08-01T10:44:12;7.07;;;3.97;;
80411;SDS011;69749;42.684;23.360;2023-08-01T10:46:48;4.03;;;3.63;;
80411;SDS011;69749;42.684;23.360;2023-08-01T10:49:14;6.30;;;3.58;;
80411;SDS011;69749;42.684;23.360;2023-08-01T10:51:41;5.72;;;3.95;;
80411;SDS011;69749;42.684;23.360;2023-08-01T10:54:17;5.82;;;3.95;;
80411;SDS011;69749;42.684;23.360;2023-08-01T10:56:44;8.88;;;4.05;;
80411;SDS011;69749;42.684;23.360;2023-08-01T10:59:11;5.28;;;3.97;;
80411;SDS011;69749;42.684;23.360;2023-08-01T11:01:44;5.65;;;4.25;;
80411;SDS011;69749;42.684;23.360;2023-08-01T11:04:17;5.72;;;3.85;;
80411;SDS011;69749;42.684;23.360;2023-08-01T11:06:50;4.70;;;4.18;;
80411;SDS011;69749;42.684;23.360;2023-08-01T11:09:20;5.50;;;4.03;;
80411;SDS011;69749;42.684;23.360;2023-08-01T11:11:48;6.60;;;3.95;;
80411;SDS011;69749;42.684;23.360;2023-08-01T11:14:15;4.28;;;3.60;;
80411;SDS011;69749;42.684;23.360;2023-08-01T11:16:42;4.28;;;3.67;;
80411;SDS011;69749;42.684;23.360;2023-08-01T11:19:20;5.50;;;4.05;;
80411;SDS011;69749;42.684;23.360;2023-08-01T11:21:47;4.07;;;3.78;;
80411;SDS011;69749;42.684;23.360;2023-08-01T11:24:13;4.30;;;3.70;;
80411;SDS011;69749;42.684;23.360;2023-08-01T11:26:43;4.88;;;3.78;;
80411;SDS011;69749;42.684;23.360;2023-08-01T11:29:09;4.60;;;4.05;;
80411;SDS011;69749;42.684;23.360;2023-08-01T11:31:36;4.00;;;3.22;;
80411;SDS011;69749;42.684;23.360;2023-08-01T11:34:02;3.78;;;3.42;;
80411;SDS011;69749;42.684;23.360;2023-08-01T11:36:28;4.40;;;3.88;;
80411;SDS011;69749;42.684;23.360;2023-08-01T11:38:57;4.70;;;3.65;;
80411;SDS011;69749;42.684;23.360;2023-08-01T11:41:24;3.88;;;3.40;;
80411;SDS011;69749;42.684;23.360;2023-08-01T11:43:52;5.47;;;3.90;;
80411;SDS011;69749;42.684;23.360;2023-08-01T11:46:19;4.38;;;3.97;;
80411;SDS011;69749;42.684;23.360;2023-08-01T11:48:45;6.95;;;3.50;;
80411;SDS011;69749;42.684;23.360;2023-08-01T11:51:17;4.82;;;3.47;;
80411;SDS011;69749;42.684;23.360;2023-08-01T11:53:43;4.60;;;3.90;;
80411;SDS011;69749;42.684;23.360;2023-08-01T11:56:19;4.65;;;3.20;;
80411;SDS011;69749;42.684;23.360;2023-08-01T11:58:47;8.38;;;4.35;;
80411;SDS011;69749;42.684;23.360;2023-08-01T12:01:13;4.45;;;3.90;;
80411;SDS011;69749;42.684;23.360;2023-08-01T12:06:09;4.78;;;3.47;;
80411;SDS011;69749;42.684;23.360;2023-08-01T12:08:36;5.68;;;3.63;;
80411;SDS011;69749;42.684;23.360;2023-08-01T12:11:02;4.80;;;3.50;;
80411;SDS011;69749;42.684;23.360;2023-08-01T12:13:27;6.00;;;3.78;;
80411;SDS011;69749;42.684;23.360;2023-08-01T12:15:53;7.50;;;3.70;;
80411;SDS011;69749;42.684;23.360;2023-08-01T12:18:27;5.00;;;3.40;;
80411;SDS011;69749;42.684;23.360;2023-08-01T12:23:19;5.07;;;3.33;;
80411;SDS011;69749;42.684;23.360;2023-08-01T12:25:46;5.78;;;3.28;;
80411;SDS011;69749;42.684;23.360;2023-08-01T12:28:13;5.55;;;3.90;;
80411;SDS011;69749;42.684;23.360;2023-08-01T12:30:39;6.68;;;3.53;;
80411;SDS011;69749;42.684;23.360;2023-08-01T12:33:06;5.80;;;3.17;;
80411;SDS011;69749;42.684;23.360;2023-08-01T12:35:32;3.90;;;3.28;;
80411;SDS011;69749;42.684;23.360;2023-08-01T12:37:58;4.70;;;3.35;;
80411;SDS011;69749;42.684;23.360;2023-08-01T12:40:23;3.88;;;3.47;;
80411;SDS011;69749;42.684;23.360;2023-08-01T12:42:49;6.43;;;3.38;;
80411;SDS011;69749;42.684;23.360;2023-08-01T12:45:14;5.00;;;3.85;;
80411;SDS011;69749;42.684;23.360;2023-08-01T12:47:39;4.05;;;3.40;;
80411;SDS011;69749;42.684;23.360;2023-08-01T12:50:05;4.40;;;3.55;;
80411;SDS011;69749;42.684;23.360;2023-08-01T12:52:31;4.07;;;3.42;;
80411;SDS011;69749;42.684;23.360;2023-08-01T12:54:57;3.63;;;3.30;;
80411;SDS011;69749;42.684;23.360;2023-08-01T12:57:22;4.57;;;3.00;;
80411;SDS011;69749;42.684;23.360;2023-08-01T12:59:48;4.10;;;3.15;;
80411;SDS011;69749;42.684;23.360;2023-08-01T13:02:14;4.88;;;3.25;;
80411;SDS011;69749;42.684;23.360;2023-08-01T13:04:40;4.22;;;3.17;;
80411;SDS011;69749;42.684;23.360;2023-08-01T13:07:05;4.53;;;3.28;;
80411;SDS011;69749;42.684;23.360;2023-08-01T13:09:31;3.88;;;3.42;;
80411;SDS011;69749;42.684;23.360;2023-08-01T13:11:56;5.72;;;3.58;;
80411;SDS011;69749;42.684;23.360;2023-08-01T13:14:22;4.47;;;3.38;;
80411;SDS011;69749;42.684;23.360;2023-08-01T13:16:49;7.13;;;3.55;;
80411;SDS011;69749;42.684;23.360;2023-08-01T13:19:15;6.50;;;3.70;;
80411;SDS011;69749;42.684;23.360;2023-08-01T13:21:40;6.82;;;3.45;;
80411;SDS011;69749;42.684;23.360;2023-08-01T13:24:05;8.32;;;4.05;;
80411;SDS011;69749;42.684;23.360;2023-08-01T13:26:31;7.35;;;5.25;;
80411;SDS011;69749;42.684;23.360;2023-08-01T13:28:57;4.28;;;3.58;;
80411;SDS011;69749;42.684;23.360;2023-08-01T13:31:23;5.07;;;3.55;;
80411;SDS011;69749;42.684;23.360;2023-08-01T13:33:49;10.00;;;3.80;;
80411;SDS011;69749;42.684;23.360;2023-08-01T13:36:14;5.53;;;3.58;;
80411;SDS011;69749;42.684;23.360;2023-08-01T13:38:40;6.25;;;3.50;;
80411;SDS011;69749;42.684;23.360;2023-08-01T13:41:05;4.35;;;3.55;;
80411;SDS011;69749;42.684;23.360;2023-08-01T13:43:30;3.75;;;3.10;;
80411;SDS011;69749;42.684;23.360;2023-08-01T13:45:56;5.20;;;3.55;;
80411;SDS011;69749;42.684;23.360;2023-08-01T13:48:21;4.40;;;3.45;;
80411;SDS011;69749;42.684;23.360;2023-08-01T13:50:47;6.30;;;3.40;;
80411;SDS011;69749;42.684;23.360;2023-08-01T13:53:12;4.50;;;3.10;;
80411;SDS011;69749;42.684;23.360;2023-08-01T13:55:39;5.10;;;3.50;;
80411;SDS011;69749;42.684;23.360;2023-08-01T13:58:05;6.15;;;3.40;;
80411;SDS011;69749;42.684;23.360;2023-08-01T14:00:31;4.60;;;3.42;;
80411;SDS011;69749;42.684;23.360;2023-08-01T14:02:57;4.63;;;2.97;;
80411;SDS011;69749;42.684;23.360;2023-08-01T14:05:26;7.03;;;3.42;;
80411;SDS011;69749;42.684;23.360;2023-08-01T14:07:52;6.75;;;3.70;;
80411;SDS011;69749;42.684;23.360;2023-08-01T14:10:18;5.75;;;3.47;;
80411;SDS011;69749;42.684;23.360;2023-08-01T14:12:43;4.55;;;3.00;;
80411;SDS011;69749;42.684;23.360;2023-08-01T14:15:09;10.25;;;3.63;;
80411;SDS011;69749;42.684;23.360;2023-08-01T14:17:35;7.22;;;3.45;;
80411;SDS011;69749;42.684;23.360;2023-08-01T14:20:01;5.30;;;3.53;;
80411;SDS011;69749;42.684;23.360;2023-08-01T14:22:29;5.18;;;3.55;;
80411;SDS011;69749;42.684;23.360;2023-08-01T14:24:54;5.45;;;3.72;;
80411;SDS011;69749;42.684;23.360;2023-08-01T14:27:20;4.85;;;3.28;;
80411;SDS011;69749;42.684;23.360;2023-08-01T14:29:45;3.60;;;3.20;;
80411;SDS011;69749;42.684;23.360;2023-08-01T14:32:11;3.00;;;2.78;;
80411;SDS011;69749;42.684;23.360;2023-08-01T14:34:36;4.25;;;3.00;;
80411;SDS011;69749;42.684;23.360;2023-08-01T14:39:28;4.03;;;3.05;;
80411;SDS011;69749;42.684;23.360;2023-08-01T14:41:54;5.68;;;3.13;;
80411;SDS011;69749;42.684;23.360;2023-08-01T14:44:19;6.80;;;3.50;;
80411;SDS011;69749;42.684;23.360;2023-08-01T14:46:44;4.93;;;3.15;;
80411;SDS011;69749;42.684;23.360;2023-08-01T14:49:10;7.25;;;3.60;;
80411;SDS011;69749;42.684;23.360;2023-08-01T14:51:35;4.18;;;3.40;;
80411;SDS011;69749;42.684;23.360;2023-08-01T14:54:01;3.25;;;2.92;;
80411;SDS011;69749;42.684;23.360;2023-08-01T14:56:26;4.05;;;3.20;;
80411;SDS011;69749;42.684;23.360;2023-08-01T14:58:52;4.25;;;3.17;;